createdAt,value
2022-08-17T00:00:36.902Z,58.89
2022-08-17T00:05:39.762Z,58.90
2022-08-17T00:10:42.732Z,59.43
2022-08-17T00:15:46.564Z,59.42
2022-08-17T00:20:48.983Z,59.12
2022-08-17T00:25:52.061Z,59.58
2022-08-17T00:30:54.484Z,59.42
2022-08-17T00:35:56.967Z,59.33
2022-08-17T00:41:10.356Z,59.13
2022-08-17T00:46:16.025Z,59.48
2022-08-17T00:51:33.700Z,59.40
2022-08-17T00:56:44.669Z,59.72
2022-08-17T01:01:48.389Z,59.95
2022-08-17T01:06:51.346Z,60.52
2022-08-17T01:11:53.773Z,61.44
2022-08-17T01:16:56.677Z,62.04
2022-08-17T01:22:05.124Z,62.64
2022-08-17T01:27:10.340Z,62.48
2022-08-17T01:32:13.286Z,63.11
2022-08-17T01:37:15.832Z,63.20
2022-08-17T01:42:23.831Z,63.80
2022-08-17T01:47:26.174Z,63.41
2022-08-17T01:52:29.920Z,63.08
2022-08-17T01:57:32.441Z,62.88
2022-08-17T02:02:34.751Z,62.15
2022-08-17T02:07:59.383Z,61.82
2022-08-17T02:12:59.907Z,61.56
2022-08-17T02:18:03.817Z,61.59
2022-08-17T02:23:08.971Z,62.75
2022-08-17T02:28:11.452Z,63.09
2022-08-17T02:33:13.899Z,62.64
2022-08-17T02:38:17.533Z,61.97
2022-08-17T02:43:20.008Z,60.31
2022-08-17T02:48:30.423Z,59.36
2022-08-17T02:53:35.901Z,55.87
2022-08-17T02:58:38.569Z,54.66
2022-08-17T03:03:41.425Z,54.41
2022-08-17T03:08:43.790Z,53.56
2022-08-17T03:13:46.220Z,53.59
2022-08-17T03:18:49.289Z,53.92
2022-08-17T03:23:54.270Z,53.69
2022-08-17T03:28:56.872Z,53.10
2022-08-17T03:33:59.275Z,52.75
2022-08-17T03:39:02.327Z,51.83
2022-08-17T03:44:04.952Z,50.97
2022-08-17T03:49:26.708Z,50.70
2022-08-17T03:54:47.522Z,49.84
2022-08-17T03:59:49.975Z,49.71
2022-08-17T04:04:52.943Z,49.68
2022-08-17T04:09:55.322Z,49.00
2022-08-17T04:14:57.741Z,49.36
2022-08-17T04:20:00.083Z,49.18
2022-08-17T04:25:06.647Z,49.56
2022-08-17T04:30:09.626Z,49.60
2022-08-17T04:35:12.391Z,49.77
2022-08-17T04:43:41.183Z,49.48
2022-08-17T04:48:48.684Z,48.76
2022-08-17T04:53:58.394Z,47.77
2022-08-17T04:59:04.803Z,47.14
2022-08-17T05:04:25.157Z,46.21
2022-08-17T05:09:33.093Z,45.75
2022-08-17T05:14:35.648Z,45.44
2022-08-17T05:19:38.413Z,44.71
2022-08-17T05:24:43.679Z,44.04
2022-08-17T05:29:57.472Z,43.80
2022-08-17T05:35:00.866Z,43.49
2022-08-17T05:40:04.442Z,44.17
2022-08-17T05:45:09.626Z,43.48
2022-08-17T05:50:27.080Z,43.05
2022-08-17T05:55:37.407Z,42.18
2022-08-17T06:00:54.232Z,41.45
2022-08-17T06:06:15.087Z,41.34
2022-08-17T06:11:29.549Z,41.21
2022-08-17T06:16:37.475Z,40.87
2022-08-17T06:21:44.584Z,40.03
2022-08-17T06:26:48.056Z,40.35
2022-08-17T06:31:51.947Z,39.11
2022-08-17T06:37:04.246Z,39.32
2022-08-17T06:42:54.716Z,38.39
2022-08-17T06:48:13.768Z,38.15
2022-08-17T06:53:28.007Z,38.57
2022-08-17T06:58:32.425Z,37.54
2022-08-17T07:03:41.790Z,36.52
2022-08-17T07:09:06.289Z,36.35
2022-08-17T07:14:43.973Z,36.92
2022-08-17T07:19:50.972Z,36.22
2022-08-17T07:25:01.188Z,36.02
2022-08-17T07:30:25.894Z,35.59
2022-08-17T07:35:37.579Z,35.47
2022-08-17T07:41:05.411Z,35.12
2022-08-17T07:46:29.998Z,34.65
2022-08-17T07:51:39.481Z,34.63
2022-08-17T07:56:55.260Z,34.57
2022-08-17T08:01:58.218Z,34.17
2022-08-17T08:07:07.947Z,33.72
2022-08-17T08:12:30.577Z,33.95
2022-08-17T08:17:53.341Z,34.03
2022-08-17T08:23:33.877Z,33.57
2022-08-17T08:28:57.179Z,33.83
2022-08-17T08:34:47.360Z,33.28
2022-08-17T08:39:54.553Z,32.84
2022-08-17T08:45:13.107Z,32.45
2022-08-17T08:50:37.291Z,32.35
2022-08-17T08:55:53.054Z,32.92
2022-08-17T09:00:58.431Z,33.35
2022-08-17T09:06:37.588Z,32.48
2022-08-17T09:12:03.658Z,32.29
2022-08-17T09:17:14.927Z,32.06
2022-08-17T09:22:36.512Z,31.98
2022-08-17T09:28:06.030Z,32.12
2022-08-17T09:33:11.713Z,32.09
2022-08-17T09:38:35.457Z,31.95
2022-08-17T09:43:52.964Z,32.31
2022-08-17T09:49:10.649Z,31.81
2022-08-17T09:54:40.860Z,31.86
2022-08-17T09:59:53.610Z,30.57
2022-08-17T10:05:28.324Z,30.83
2022-08-17T10:10:56.448Z,31.00
2022-08-17T10:16:37.615Z,30.77
2022-08-17T10:22:00.651Z,30.46
2022-08-17T10:27:11.638Z,31.21
2022-08-17T10:32:32.311Z,30.55
2022-08-17T10:38:10.008Z,30.15
2022-08-17T10:43:31.516Z,29.54
2022-08-17T10:48:38.089Z,29.22
2022-08-17T10:53:43.668Z,29.58
2022-08-17T10:58:54.170Z,28.92
2022-08-17T11:03:57.474Z,29.80
2022-08-17T11:09:17.253Z,29.09
2022-08-17T11:14:35.687Z,28.97
2022-08-17T11:19:44.230Z,29.47
2022-08-17T11:24:51.376Z,28.73
2022-08-17T11:30:06.748Z,29.75
2022-08-17T11:35:47.269Z,29.40
2022-08-17T11:41:05.683Z,29.91
2022-08-17T11:46:25.128Z,29.93
2022-08-17T11:52:04.332Z,29.20
2022-08-17T11:57:25.539Z,29.21
2022-08-17T12:02:32.586Z,29.16
2022-08-17T12:07:43.647Z,29.02
2022-08-17T12:12:50.341Z,28.17
2022-08-17T12:17:55.081Z,28.63
2022-08-17T12:23:17.413Z,28.19
2022-08-17T12:28:29.086Z,27.96
2022-08-17T12:33:32.320Z,27.52
2022-08-17T12:38:37.775Z,27.80
2022-08-17T12:43:40.454Z,29.21
2022-08-17T12:48:59.704Z,30.05
2022-08-17T12:54:02.975Z,29.35
2022-08-17T12:59:07.235Z,29.60
2022-08-17T13:04:16.192Z,29.46
2022-08-17T13:09:39.936Z,29.82
2022-08-17T13:14:46.525Z,30.06
2022-08-17T13:19:51.113Z,29.62
2022-08-17T13:24:58.169Z,30.03
2022-08-17T13:30:11.857Z,29.72
2022-08-17T13:35:39.230Z,29.32
2022-08-17T13:40:53.311Z,30.09
2022-08-17T13:46:08.920Z,29.28
2022-08-17T13:51:21.294Z,28.64
2022-08-17T13:56:45.323Z,28.09
2022-08-17T14:01:53.840Z,29.07
2022-08-17T14:07:05.423Z,29.73
2022-08-17T14:12:13.492Z,29.44
2022-08-17T14:17:16.303Z,29.53
2022-08-17T14:22:23.812Z,28.78
2022-08-17T14:27:28.271Z,29.07
2022-08-17T14:32:34.624Z,29.40
2022-08-17T14:37:37.449Z,29.74
2022-08-17T14:42:43.024Z,29.91
2022-08-17T14:47:46.816Z,30.55
2022-08-17T14:52:49.792Z,30.66
2022-08-17T14:57:52.642Z,31.42
2022-08-17T15:02:58.597Z,31.20
2022-08-17T15:08:02.870Z,31.29
2022-08-17T15:13:15.863Z,31.28
2022-08-17T15:18:18.787Z,31.60
2022-08-17T15:23:24.411Z,31.56
2022-08-17T15:28:27.045Z,31.68
2022-08-17T15:33:31.133Z,31.67
2022-08-17T15:38:36.904Z,31.69
2022-08-17T15:43:39.528Z,31.51
2022-08-17T15:48:44.741Z,31.83
2022-08-17T15:53:51.224Z,31.57
2022-08-17T15:58:55.442Z,31.78
2022-08-17T16:04:06.764Z,31.99
2022-08-17T16:09:09.967Z,32.14
2022-08-17T16:14:13.565Z,32.45
2022-08-17T16:19:17.213Z,33.18
2022-08-17T16:24:19.924Z,33.52
2022-08-17T16:29:22.773Z,33.48
2022-08-17T16:34:25.448Z,33.51
2022-08-17T16:39:29.440Z,33.79
2022-08-17T16:44:32.725Z,34.30
2022-08-17T16:49:38.135Z,34.43
2022-08-17T16:54:45.999Z,34.72
2022-08-17T16:59:51.564Z,34.85
2022-08-17T17:05:28.533Z,34.90
2022-08-17T17:10:43.616Z,34.94
2022-08-17T17:15:57.679Z,35.50
2022-08-17T17:21:01.266Z,35.60
2022-08-17T17:26:27.451Z,36.00
2022-08-17T17:31:40.025Z,36.55
2022-08-17T17:36:48.577Z,37.06
2022-08-17T17:41:58.162Z,36.97
2022-08-17T17:47:03.223Z,37.10
2022-08-17T17:52:28.451Z,37.17
2022-08-17T17:57:57.978Z,37.40
2022-08-17T18:03:09.492Z,37.50
2022-08-17T18:08:49.993Z,37.82
2022-08-17T18:14:35.681Z,38.54
2022-08-17T18:19:40.109Z,38.14
2022-08-17T18:24:46.744Z,38.62
2022-08-17T18:29:53.315Z,38.75
2022-08-17T18:35:10.175Z,39.33
2022-08-17T18:40:19.577Z,39.93
2022-08-17T18:45:48.763Z,39.79
2022-08-17T18:50:54.110Z,40.07
2022-08-17T18:56:16.930Z,40.22
2022-08-17T19:01:21.390Z,40.68
2022-08-17T19:06:31.539Z,41.08
2022-08-17T19:11:35.877Z,41.40
2022-08-17T19:16:47.126Z,41.95
2022-08-17T19:21:53.499Z,42.44
2022-08-17T19:27:20.839Z,42.43
2022-08-17T19:32:32.091Z,42.60
2022-08-17T19:38:00.863Z,43.02
2022-08-17T19:43:12.897Z,43.34
2022-08-17T19:48:37.420Z,43.89
2022-08-17T19:54:06.358Z,44.24
2022-08-17T19:59:21.204Z,44.50
2022-08-17T20:04:32.630Z,45.14
2022-08-17T20:09:44.033Z,45.46
2022-08-17T20:15:18.748Z,46.14
2022-08-17T20:20:21.431Z,46.53
2022-08-17T20:25:32.562Z,47.00
2022-08-17T20:30:40.973Z,47.44
2022-08-17T20:36:00.673Z,48.08
2022-08-17T20:41:04.017Z,48.91
2022-08-17T20:46:26.802Z,49.54
2022-08-17T20:52:01.429Z,49.90
2022-08-17T20:57:06.775Z,50.61
2022-08-17T21:02:22.577Z,51.41
2022-08-17T21:07:43.019Z,51.96
2022-08-17T21:12:51.566Z,52.14
2022-08-17T21:18:01.078Z,51.82
2022-08-17T21:23:16.345Z,51.99
2022-08-17T21:29:00.242Z,52.32
2022-08-17T21:34:16.197Z,52.75
2022-08-17T21:39:33.081Z,53.01
2022-08-17T21:44:43.058Z,53.72
2022-08-17T21:49:45.778Z,53.66
2022-08-17T21:54:57.643Z,53.63
2022-08-17T22:00:04.988Z,53.74
2022-08-17T22:05:11.847Z,54.06
2022-08-17T22:10:49.121Z,54.18
2022-08-17T22:16:15.343Z,54.36
2022-08-17T22:21:30.941Z,54.86
2022-08-17T22:27:00.423Z,55.14
2022-08-17T22:32:03.702Z,55.48
2022-08-17T22:37:28.059Z,56.14
2022-08-17T22:42:31.293Z,56.80
2022-08-17T22:47:48.605Z,57.23
2022-08-17T22:53:18.889Z,57.43
2022-08-17T22:58:43.489Z,57.61
2022-08-17T23:04:06.769Z,57.41
2022-08-17T23:09:09.577Z,57.23
2022-08-17T23:14:14.552Z,57.32
2022-08-17T23:19:21.865Z,57.41
2022-08-17T23:24:28.012Z,57.41
2022-08-17T23:29:30.657Z,57.67
2022-08-17T23:34:33.565Z,58.69
2022-08-17T23:39:36.449Z,59.58
2022-08-17T23:44:43.684Z,59.66
2022-08-17T23:49:46.336Z,60.19
2022-08-17T23:54:49.569Z,60.24
2022-08-17T23:59:52.355Z,60.64
